Stations météo

réclame
Mon MeteoGroup
Kassel/Calden, Allemagne (10436): Température de l'air & dewpoint: 09.09.2019 12:00:00 - 15.09.2019 12:00:00 (CEST)Kassel/Calden, Allemagne (10436): Vitesse du vent: 09.09.2019 12:00:00 - 15.09.2019 12:00:00 (CEST)Kassel/Calden, Allemagne (10436): Direction du vent: 09.09.2019 12:00:00 - 15.09.2019 12:00:00 (CEST)Kassel/Calden, Allemagne (10436): visibility: 09.09.2019 12:00:00 - 15.09.2019 12:00:00 (CEST)
Date & Time tt [°C] td [°C] ff [km/h] ff [knt] dd vv [km]
15.09.2019 12:00:00 20,0 9,0 11 6 W 10
15.09.2019 11:00:00 18,0 10,0 5 3 - 10
15.09.2019 10:00:00 14,0 9,0 5 3 ESE 10
15.09.2019 09:00:00 10,0 7,0 8 4 S 10
15.09.2019 08:00:00 6,0 6,0 8 4 SSE 10
15.09.2019 07:00:00 - - - - - -
15.09.2019 06:00:00 - - - - - -
15.09.2019 05:00:00 6,0 5,0 5 3 S 10
15.09.2019 04:00:00 - - - - - -
15.09.2019 03:00:00 - - - - - -
15.09.2019 02:00:00 - - - - - -
15.09.2019 01:00:00 - - - - - -
15.09.2019 00:00:00 - - - - - -
14.09.2019 23:00:00 - - - - - -
14.09.2019 22:00:00 11,0 7,0 2 1 - 10
14.09.2019 21:00:00 12,0 8,0 0 0 N 10
14.09.2019 20:00:00 16,0 6,0 4 2 N 10
14.09.2019 19:00:00 18,0 6,0 5 3 NNE 10
14.09.2019 18:00:00 19,0 5,0 4 2 - 10
14.09.2019 17:00:00 19,0 5,0 8 4 NNE 10
14.09.2019 16:00:00 19,0 7,0 8 4 - 10
14.09.2019 15:00:00 19,0 6,0 8 4 - 10
14.09.2019 14:00:00 17,0 6,0 4 2 - 10
14.09.2019 13:00:00 17,0 6,0 9 5 NE 10
14.09.2019 12:00:00 16,0 8,0 8 4 NNE 10
14.09.2019 11:00:00 14,0 9,0 5 3 - 10
14.09.2019 10:00:00 10,0 8,0 5 3 NW 10
14.09.2019 09:00:00 8,0 7,0 4 2 N 10
14.09.2019 08:00:00 6,0 6,0 5 3 SW 10
14.09.2019 07:00:00 - - - - - -
14.09.2019 06:00:00 - - - - - -
14.09.2019 05:00:00 7,0 6,0 2 1 - 10
14.09.2019 04:00:00 - - - - - -
14.09.2019 03:00:00 - - - - - -
14.09.2019 02:00:00 - - - - - -
14.09.2019 01:00:00 - - - - - -
14.09.2019 00:00:00 - - - - - -
13.09.2019 23:00:00 13,0 10,0 5 3 NNW 10
13.09.2019 22:00:00 14,0 11,0 13 7 N 10
13.09.2019 21:00:00 - - - - - -
13.09.2019 20:00:00 15,0 12,0 11 6 WNW 10
13.09.2019 19:00:00 17,0 12,0 15 8 NW 10
13.09.2019 18:00:00 17,0 14,0 15 8 WNW 10
13.09.2019 17:00:00 17,0 14,0 15 8 WNW 10
13.09.2019 16:00:00 16,0 15,0 9 5 W 10
13.09.2019 15:00:00 17,0 15,0 16 9 NNW 8
13.09.2019 14:00:00 18,0 14,0 29 16 NNW 9
13.09.2019 13:00:00 20,0 15,0 16 9 W 10
13.09.2019 12:00:00 18,0 14,0 13 7 W 10
13.09.2019 11:00:00 18,0 15,0 15 8 W 10
13.09.2019 10:00:00 17,0 15,0 11 6 W 10
13.09.2019 09:00:00 16,0 15,0 8 4 W 7
13.09.2019 08:00:00 17,0 14,0 13 7 W 10
13.09.2019 07:00:00 - - - - - -
13.09.2019 06:00:00 - - - - - -
13.09.2019 05:00:00 17,0 13,0 9 5 SW 10
13.09.2019 04:00:00 - - - - - -
13.09.2019 03:00:00 - - - - - -
13.09.2019 02:00:00 - - - - - -
13.09.2019 01:00:00 - - - - - -
13.09.2019 00:00:00 - - - - - -
12.09.2019 23:00:00 - - - - - -
12.09.2019 22:00:00 - - - - - -
12.09.2019 21:00:00 17,0 12,0 11 6 WSW 10
12.09.2019 20:00:00 19,0 12,0 11 6 W 10
12.09.2019 19:00:00 21,0 12,0 15 8 W 10
12.09.2019 18:00:00 22,0 11,0 24 13 W 10
12.09.2019 17:00:00 20,0 13,0 16 9 SW 10
12.09.2019 16:00:00 21,0 11,0 18 10 WSW 10
12.09.2019 15:00:00 21,0 10,0 18 10 W 10
12.09.2019 14:00:00 21,0 12,0 16 9 WSW 10
12.09.2019 13:00:00 21,0 11,0 16 9 WSW 10
12.09.2019 12:00:00 19,0 14,0 13 7 S 10
12.09.2019 11:00:00 18,0 14,0 5 3 - 10
12.09.2019 10:00:00 16,0 13,0 8 4 SSE 10
12.09.2019 09:00:00 15,0 13,0 5 3 S 10
12.09.2019 08:00:00 13,0 12,0 5 3 SE 10
12.09.2019 07:00:00 - - - - - -
12.09.2019 06:00:00 - - - - - -
12.09.2019 05:00:00 14,0 12,0 9 5 WSW 10
12.09.2019 04:00:00 - - - - - -
12.09.2019 03:00:00 - - - - - -
12.09.2019 02:00:00 - - - - - -
12.09.2019 01:00:00 - - - - - -
12.09.2019 00:00:00 - - - - - -
11.09.2019 23:00:00 - - - - - -
11.09.2019 22:00:00 - - - - - -
11.09.2019 21:00:00 14,0 11,0 18 10 WSW 10
11.09.2019 20:00:00 16,0 10,0 8 4 W 10
11.09.2019 19:00:00 18,0 8,0 13 7 WSW 10
11.09.2019 18:00:00 20,0 6,0 22 12 WSW 10
11.09.2019 17:00:00 20,0 6,0 16 9 SW 10
11.09.2019 16:00:00 20,0 6,0 24 13 SSW 10
11.09.2019 15:00:00 20,0 6,0 16 9 SW 10
11.09.2019 14:00:00 20,0 6,0 16 9 SSW 10
11.09.2019 13:00:00 19,0 7,0 21 11 SSW 10
11.09.2019 12:00:00 19,0 7,0 16 9 SW 10
11.09.2019 11:00:00 16,0 8,0 9 5 ESE 10
11.09.2019 10:00:00 12,0 8,0 8 4 SE 10
11.09.2019 09:00:00 9,0 7,0 8 4 ESE 10
11.09.2019 08:00:00 6,0 5,0 2 1 - 10
11.09.2019 07:00:00 - - - - - -
11.09.2019 06:00:00 7,0 5,0 9 5 SSE 10
11.09.2019 05:00:00 - - - - - -
11.09.2019 04:00:00 - - - - - -
11.09.2019 03:00:00 - - - - - -
11.09.2019 02:00:00 - - - - - -
11.09.2019 01:00:00 - - - - - -
11.09.2019 00:00:00 - - - - - -
10.09.2019 23:00:00 - - - - - -
10.09.2019 22:00:00 - - - - - -
10.09.2019 21:00:00 - - - - - -
10.09.2019 20:00:00 15,0 6,0 8 4 WNW 10
10.09.2019 19:00:00 17,0 6,0 11 6 NNW 10
10.09.2019 18:00:00 18,0 4,0 13 7 NW 10
10.09.2019 17:00:00 17,0 5,0 13 7 WNW 10
10.09.2019 16:00:00 17,0 5,0 15 8 NNW 10
10.09.2019 15:00:00 17,0 6,0 13 7 NW 10
10.09.2019 14:00:00 17,0 5,0 18 10 NNW 10
10.09.2019 13:00:00 17,0 5,0 13 7 NNW 10
10.09.2019 12:00:00 16,0 8,0 4 2 - 10
10.09.2019 11:00:00 14,0 9,0 4 2 - 10
10.09.2019 10:00:00 11,0 9,0 4 2 - 8
10.09.2019 09:00:00 8,0 7,0 2 1 - 10
10.09.2019 08:00:00 7,0 7,0 2 1 E 10
10.09.2019 07:00:00 - - - - - -
10.09.2019 06:00:00 - - - - - -
10.09.2019 05:00:00 7,0 6,0 4 2 S 10
10.09.2019 04:00:00 - - - - - -
10.09.2019 03:00:00 - - - - - -
10.09.2019 02:00:00 - - - - - -
10.09.2019 01:00:00 - - - - - -
10.09.2019 00:00:00 - - - - - -
09.09.2019 23:00:00 - - - - - -
09.09.2019 22:00:00 - - - - - -
09.09.2019 21:00:00 13,0 8,0 13 7 W 10
09.09.2019 20:00:00 13,0 7,0 11 6 W 10
09.09.2019 19:00:00 16,0 7,0 24 13 WNW 10
09.09.2019 18:00:00 16,0 8,0 26 14 NW 10
09.09.2019 17:00:00 17,0 9,0 16 9 NW 10
09.09.2019 16:00:00 15,0 10,0 16 9 NNW 10
09.09.2019 15:00:00 14,0 10,0 16 9 NW 10
09.09.2019 14:00:00 13,0 10,0 21 11 NNW 10
09.09.2019 13:00:00 14,0 10,0 21 11 NW 10
09.09.2019 12:00:00 13,0 10,0 16 9 NW 10

tt = Température de l'air
td = dewpoint
ff = Vitesse du vent
dd = Direction du vent
vv = visibility

stations d'obs. à proximité